Portada
METAR-TAF:

METAR-TAF

Aeroports :

Nowra, Austràlia

latitud: 34-57S, longitud: 150-32E, altitud: 122 m

Observació

L'informe es va fer fa 49 minuts, a les 14:00 UTC
Vent 12 kt del Nord-Oest
Temperatura 12°C
Humitat 35%
Pressió 1012 hPa
Visibilitat 10 km o més

METAR: YSNW 161400Z AUTO 31012KT 9999 // NCD 12/M03 Q1012

Hora: 00:49 (14:49 UTC)


TAF: manca

Observacions i pronòstics meteorològics de més de 4000 aeroports (METAR i TAF).

Les estacions disponibles són els punts grocs i vermells al mapa.

Posi el ratolí al punt desitjat per veure el nom de l'estació.

Feu clic per veure les observacions i els pronòstics meteorològics.

Per canviar el mapa: feu clic els botons verds amb una creu de color negre per apropar; al botó verd amb un guió per allunyar la imatge; o en les fletxes verdes per a mapes adjacents.


METAR-TAF: